Time;durP1;ratioP1;P1;durP2;ratioP2;P2;SDS_P1;SDS_P2;PMS_P1;PMS_P2;Temp;Humidity;BMP_temperature;BMP_pressure;BME280_temperature;BME280_humidity;BME280_pressure;Samples;Min_cycle;Max_cycle;Signal;HPM_P1;HPM_P2
2024/02/03 06:54:01;;;;;;;12.45;11.15;;;;;;;;;;10689479;27;20391;-84
2024/02/03 07:04:44;;;;;;;5.88;5.20;;;;;;;;;;10686266;22;20413;-81
2024/02/03 07:09:45;;;;;;;4.70;4.20;;;;;;;;;;10498398;28;20064;-80
2024/02/03 07:14:46;;;;;;;;;;;;;;;;;;10500719;28;20481;-82
2024/02/03 07:19:47;;;;;;;6.55;5.38;;;;;;;;;;10483535;28;19970;-82
2024/02/03 07:24:48;;;;;;;;;;;;;;;;;;10502077;28;20024;-82
2024/02/03 07:29:49;;;;;;;10.82;9.00;;;;;;;;;;10503435;28;19930;-81
2024/02/03 07:34:50;;;;;;;;;;;;;;;;;;10504279;28;20021;-82
2024/02/03 07:39:51;;;;;;;8.70;7.88;;;;;;;;;;10485556;28;20344;-82
2024/02/03 07:44:52;;;;;;;11.82;10.55;;;;;;;;;;10488935;28;20047;-82
2024/02/03 07:49:53;;;;;;;;;;;;;;;;;;10526901;28;20059;-81
2024/02/03 07:54:54;;;;;;;14.25;12.45;;;;;;;;;;10467395;28;20031;-82
2024/02/03 07:59:55;;;;;;;;;;;;;;;;;;10456072;28;20119;-82
2024/02/03 08:04:56;;;;;;;9.68;8.63;;;;;;;;;;10471597;28;19972;-82
2024/02/03 08:09:57;;;;;;;;;;;;;;;;;;10481890;28;20029;-83
2024/02/03 08:14:58;;;;;;;8.73;6.68;;;;;;;;;;10456163;28;19908;-81
2024/02/03 08:19:59;;;;;;;;;;;;;;;;;;10453201;28;20036;-83
2024/02/03 08:25:00;;;;;;;6.95;6.25;;;;;;;;;;10468260;28;19915;-83
2024/02/03 08:30:01;;;;;;;16.17;12.50;;;;;;;;;;10472630;28;20104;-83
2024/02/03 08:35:02;;;;;;;8.02;7.22;;;;;;;;;;10483544;28;20043;-83
2024/02/03 08:40:04;;;;;;;12.57;10.65;;;;;;;;;;10480582;28;20024;-82
2024/02/03 08:45:06;;;;;;;10.35;9.25;;;;;;;;;;10464591;28;20028;-83
2024/02/03 08:50:11;;;;;;;10.43;8.10;;;;;;;;;;10477863;28;20037;-83
2024/02/03 08:55:33;;;;;;;10.23;9.20;;;;;;;;;;10476697;28;20482;-85
2024/02/03 09:00:34;;;;;;;8.05;6.93;;;;;;;;;;10474545;28;20025;-83
2024/02/03 09:05:35;;;;;;;9.35;7.63;;;;;;;;;;10478644;28;20119;-82
2024/02/03 09:10:36;;;;;;;9.57;8.23;;;;;;;;;;10462554;28;20025;-80
2024/02/03 09:15:49;;;;;;;8.00;7.00;;;;;;;;;;10475721;28;20537;-82
2024/02/03 09:20:50;;;;;;;8.18;6.68;;;;;;;;;;10453572;28;20029;-81
2024/02/03 09:25:51;;;;;;;;;;;;;;;;;;10468832;28;20113;-82
2024/02/03 09:30:52;;;;;;;6.35;5.45;;;;;;;;;;10448130;28;19964;-83
2024/02/03 09:35:53;;;;;;;;;;;;;;;;;;10446576;28;20116;-83
2024/02/03 09:40:55;;;;;;;5.47;4.80;;;;;;;;;;10448387;28;19905;-85
2024/02/03 09:46:02;;;;;;;5.45;4.68;;;;;;;;;;10457017;28;20095;-83
2024/02/03 09:51:23;;;;;;;5.05;4.25;;;;;;;;;;10473963;28;20488;-83
2024/02/03 09:56:30;;;;;;;7.93;4.30;;;;;;;;;;10471701;28;20471;-84
2024/02/03 10:01:31;;;;;;;5.97;3.90;;;;;;;;;;10455892;28;20025;-84
2024/02/03 10:06:32;;;;;;;5.82;4.30;;;;;;;;;;10437584;28;20406;-84
2024/02/03 10:11:41;;;;;;;5.50;4.13;;;;;;;;;;10456315;28;20020;-83
2024/02/03 10:16:52;;;;;;;4.57;4.07;;;;;;;;;;10456043;28;20025;-83
2024/02/03 10:21:53;;;;;;;4.97;3.72;;;;;;;;;;10462158;28;20519;-82
2024/02/03 10:27:04;;;;;;;4.95;3.72;;;;;;;;;;10459222;28;20032;-84
2024/02/03 10:32:06;;;;;;;5.57;3.72;;;;;;;;;;10453050;28;20037;-85
2024/02/03 10:37:07;;;;;;;3.80;3.40;;;;;;;;;;10469109;28;20052;-84
2024/02/03 10:42:10;;;;;;;4.65;3.25;;;;;;;;;;10466406;28;20477;-83
2024/02/03 10:47:11;;;;;;;5.20;3.50;;;;;;;;;;10446608;28;20028;-86
2024/02/03 10:52:12;;;;;;;3.97;3.30;;;;;;;;;;10447468;28;20036;-84
2024/02/03 10:57:15;;;;;;;5.85;3.42;;;;;;;;;;10446831;28;20089;-82
2024/02/03 11:02:18;;;;;;;4.35;3.53;;;;;;;;;;10451326;28;20483;-82
2024/02/03 11:07:23;;;;;;;5.28;4.55;;;;;;;;;;10465655;28;20029;-81
2024/02/03 11:12:33;;;;;;;3.90;3.60;;;;;;;;;;10464866;28;20029;-82
2024/02/03 11:17:34;;;;;;;5.43;4.27;;;;;;;;;;10465569;28;20080;-81
2024/02/03 11:22:35;;;;;;;;;;;;;;;;;;10452538;28;20365;-81
2024/02/03 11:27:36;;;;;;;5.50;4.68;;;;;;;;;;10452053;28;19974;-82
2024/02/03 11:32:37;;;;;;;4.80;4.28;;;;;;;;;;10467314;28;20076;-82
2024/02/03 11:37:38;;;;;;;;;;;;;;;;;;10471436;28;20579;-78
2024/02/03 11:42:42;;;;;;;5.15;4.65;;;;;;;;;;10463744;28;19923;-79
2024/02/03 11:47:44;;;;;;;4.70;4.20;;;;;;;;;;10458951;28;20025;-80
2024/02/03 11:52:47;;;;;;;5.50;4.55;;;;;;;;;;10473539;28;20025;-83
2024/02/03 11:57:49;;;;;;;4.80;3.40;;;;;;;;;;10471907;28;20044;-82
2024/02/03 12:02:49;;;;;;;;;;;;;;;;;;10461747;28;20035;-81
2024/02/03 12:07:51;;;;;;;3.53;2.85;;;;;;;;;;10485763;28;19985;-80
2024/02/03 12:12:52;;;;;;;3.53;2.47;;;;;;;;;;10485596;28;20044;-81
2024/02/03 12:17:53;;;;;;;2.55;2.15;;;;;;;;;;10471391;28;20115;-80
2024/02/03 12:22:56;;;;;;;3.28;2.45;;;;;;;;;;10480627;28;20117;-80
2024/02/03 12:27:57;;;;;;;3.53;2.60;;;;;;;;;;10466507;28;20084;-79
2024/02/03 12:32:58;;;;;;;3.55;2.42;;;;;;;;;;10469565;28;20036;-80
2024/02/03 12:37:59;;;;;;;3.88;3.47;;;;;;;;;;10482936;28;20056;-79
2024/02/03 12:43:00;;;;;;;4.60;2.00;;;;;;;;;;10461622;28;20486;-81
2024/02/03 12:48:01;;;;;;;5.32;1.75;;;;;;;;;;10467112;28;20017;-80
2024/02/03 12:53:02;;;;;;;2.45;2.20;;;;;;;;;;10452456;28;20060;-82
2024/02/03 12:58:04;;;;;;;4.43;4.03;;;;;;;;;;10448573;28;20025;-80
2024/02/03 13:03:05;;;;;;;3.20;2.55;;;;;;;;;;10469486;28;20025;-78
2024/02/03 13:08:07;;;;;;;3.03;2.72;;;;;;;;;;10502814;28;20422;-85
2024/02/03 13:13:08;;;;;;;2.45;2.08;;;;;;;;;;10466163;28;20056;-85
2024/02/03 13:18:09;;;;;;;;;;;;;;;;;;10469121;28;20075;-85
2024/02/03 13:23:11;;;;;;;4.40;3.88;;;;;;;;;;10448639;28;19916;-84
2024/02/03 13:28:12;;;;;;;3.22;2.92;;;;;;;;;;10467935;28;20025;-84
2024/02/03 13:33:14;;;;;;;;;;;;;;;;;;10467882;28;20029;-84
2024/02/03 13:38:15;;;;;;;4.13;3.80;;;;;;;;;;10451449;28;19905;-85
2024/02/03 13:43:16;;;;;;;4.03;3.55;;;;;;;;;;10462146;28;20029;-83
2024/02/03 13:48:17;;;;;;;;;;;;;;;;;;10471366;28;20079;-84
2024/02/03 13:53:18;;;;;;;3.95;3.65;;;;;;;;;;10471138;28;19911;-86
2024/02/03 13:58:19;;;;;;;;;;;;;;;;;;10482062;28;20054;-85
2024/02/03 14:03:20;;;;;;;6.63;5.63;;;;;;;;;;10474822;28;19915;-85
2024/02/03 14:08:21;;;;;;;;;;;;;;;;;;10464381;28;20029;-82
2024/02/03 14:13:22;;;;;;;3.25;2.95;;;;;;;;;;10485589;28;19968;-83
2024/02/03 14:18:23;;;;;;;;;;;;;;;;;;10461268;28;20033;-85
2024/02/03 14:23:24;;;;;;;7.28;6.25;;;;;;;;;;10452789;28;19908;-85
2024/02/03 14:28:25;;;;;;;;;;;;;;;;;;10452648;28;20089;-85
2024/02/03 14:33:27;;;;;;;5.22;4.55;;;;;;;;;;10468835;28;20319;-85
2024/02/03 14:38:28;;;;;;;4.97;4.47;;;;;;;;;;10447502;28;20123;-86
2024/02/03 14:43:29;;;;;;;;;;;;;;;;;;10443786;28;20029;-85
2024/02/03 14:48:30;;;;;;;4.95;3.85;;;;;;;;;;10464246;28;19912;-85
2024/02/03 14:53:31;;;;;;;5.22;4.32;;;;;;;;;;10464140;28;20021;-84
2024/02/03 14:58:32;;;;;;;;;;;;;;;;;;10468480;28;20597;-85
2024/02/03 15:03:33;;;;;;;6.40;5.80;;;;;;;;;;10474338;28;19909;-85
2024/02/03 15:08:34;;;;;;;;;;;;;;;;;;10478988;28;20068;-85
2024/02/03 15:13:35;;;;;;;4.00;3.60;;;;;;;;;;10479299;28;19949;-85
2024/02/03 15:18:36;;;;;;;;;;;;;;;;;;10480405;28;20025;-85
2024/02/03 15:23:37;;;;;;;6.18;5.57;;;;;;;;;;10481316;28;19905;-86
2024/02/03 15:28:38;;;;;;;;;;;;;;;;;;10475475;28;20037;-84
2024/02/03 15:33:39;;;;;;;24.80;19.95;;;;;;;;;;10509725;28;19890;-84
2024/02/03 15:38:40;;;;;;;11.32;9.82;;;;;;;;;;10480530;28;20060;-85
2024/02/03 15:43:41;;;;;;;;;;;;;;;;;;10472805;28;20013;-84
2024/02/03 15:48:42;;;;;;;9.20;8.30;;;;;;;;;;10471349;28;20373;-85
2024/02/03 15:53:43;;;;;;;;;;;;;;;;;;10473351;28;20104;-85
2024/02/03 15:58:44;;;;;;;4.13;3.72;;;;;;;;;;10462971;28;20457;-85
2024/02/03 16:03:45;;;;;;;;;;;;;;;;;;10455317;28;20045;-84
2024/02/03 16:08:46;;;;;;;5.82;5.25;;;;;;;;;;10454323;28;19918;-84
2024/02/03 16:13:47;;;;;;;;;;;;;;;;;;10455558;28;20028;-84
2024/02/03 16:18:48;;;;;;;7.13;6.43;;;;;;;;;;10456900;28;19908;-85
2024/02/03 16:23:49;;;;;;;5.15;4.65;;;;;;;;;;10480635;28;20032;-85
2024/02/03 16:28:50;;;;;;;;;;;;;;;;;;10479246;28;20105;-85
2024/02/03 16:33:51;;;;;;;3.35;3.05;;;;;;;;;;10459352;28;19923;-85
2024/02/03 16:38:53;;;;;;;5.97;5.47;;;;;;;;;;10479860;28;20158;-85
2024/02/03 16:43:54;;;;;;;4.80;4.22;;;;;;;;;;10501683;28;20025;-83
2024/02/03 16:48:58;;;;;;;;;;;;;;;;;;10476518;28;20057;-85
2024/02/03 16:53:59;;;;;;;4.82;4.13;;;;;;;;;;10454304;28;19905;-84
2024/02/03 16:59:00;;;;;;;;;;;;;;;;;;10455381;28;20021;-85
2024/02/03 17:04:01;;;;;;;4.57;4.13;;;;;;;;;;10470674;28;19926;-84
2024/02/03 17:09:02;;;;;;;;;;;;;;;;;;10474189;28;20053;-84
2024/02/03 17:14:03;;;;;;;3.97;3.58;;;;;;;;;;10477960;28;19968;-84
2024/02/03 17:19:05;;;;;;;;;;;;;;;;;;10459762;28;20132;-85
2024/02/03 17:24:06;;;;;;;6.07;5.30;;;;;;;;;;10477427;28;20434;-85
2024/02/03 17:29:07;;;;;;;;;;;;;;;;;;10496711;28;20017;-84
2024/02/03 17:34:08;;;;;;;7.45;6.63;;;;;;;;;;10493407;28;19940;-85
2024/02/03 17:39:11;;;;;;;;;;;;;;;;;;10469615;28;20029;-85
2024/02/03 17:44:12;;;;;;;6.75;6.15;;;;;;;;;;10474836;28;19912;-85
2024/02/03 17:49:13;;;;;;;;;;;;;;;;;;10475978;28;20060;-85
2024/02/03 17:54:14;;;;;;;5.93;5.32;;;;;;;;;;10477641;28;20007;-85
2024/02/03 17:59:15;;;;;;;;;;;;;;;;;;10469208;28;20046;-86
2024/02/03 18:04:18;;;;;;;7.88;6.82;;;;;;;;;;10473279;28;19905;-83
2024/02/03 18:09:19;;;;;;;6.78;5.97;;;;;;;;;;10450066;28;20116;-85
2024/02/03 18:14:22;;;;;;;;;;;;;;;;;;10470281;28;20090;-83
2024/02/03 18:19:23;;;;;;;4.43;3.78;;;;;;;;;;10471394;28;20389;-84
2024/02/03 18:24:28;;;;;;;;;;;;;;;;;;10469438;28;20024;-84
2024/02/03 18:29:30;;;;;;;4.80;4.30;;;;;;;;;;10469600;28;19927;-84
2024/02/03 18:34:31;;;;;;;8.90;7.32;;;;;;;;;;10458865;28;20025;-84
2024/02/03 18:39:32;;;;;;;;;;;;;;;;;;10468524;28;20040;-83
2024/02/03 18:44:33;;;;;;;7.55;6.40;;;;;;;;;;10452097;28;20286;-83
2024/02/03 18:49:35;;;;;;;7.13;6.15;;;;;;;;;;10497166;28;20021;-83
2024/02/03 18:54:36;;;;;;;7.13;6.43;;;;;;;;;;10467001;28;20032;-85
2024/02/03 18:59:37;;;;;;;;;;;;;;;;;;10474565;28;20226;-85
2024/02/03 19:04:38;;;;;;;6.80;5.72;;;;;;;;;;10459446;28;20438;-79
2024/02/03 19:09:39;;;;;;;;;;;;;;;;;;10462871;28;20088;-80
2024/02/03 19:14:40;;;;;;;9.45;7.60;;;;;;;;;;10462307;28;19904;-81
2024/02/03 19:19:41;;;;;;;;;;;;;;;;;;10443944;28;20120;-79
2024/02/03 19:24:43;;;;;;;;;;;;;;;;;;10462238;28;19944;-79
2024/02/03 19:29:44;;;;;;;7.13;4.72;;;;;;;;;;10443476;28;19904;-81
2024/02/03 19:34:45;;;;;;;;;;;;;;;;;;10461477;28;20052;-81
2024/02/03 19:39:46;;;;;;;6.38;5.72;;;;;;;;;;10443404;28;19915;-81
2024/02/03 19:44:47;;;;;;;;;;;;;;;;;;10443252;28;20035;-81
2024/02/03 19:49:48;;;;;;;9.60;6.80;;;;;;;;;;10449011;28;19930;-81
2024/02/03 19:54:49;;;;;;;10.68;8.63;;;;;;;;;;10450789;28;20120;-82
2024/02/03 19:59:50;;;;;;;;;;;;;;;;;;10452951;28;20032;-81
2024/02/03 20:04:51;;;;;;;7.32;5.95;;;;;;;;;;10451774;28;19919;-81
